sensor_id;sensor_type;location;lat;lon;timestamp;pressure;altitude;pressure_sealevel;temperature;humidity
58373;BME280;44177;43.356;27.672;2023-10-19T00:00:33;98374.44;;;7.31;93.47
58373;BME280;44177;43.356;27.672;2023-10-19T00:03:01;98351.31;;;7.16;93.01
58373;BME280;44177;43.356;27.672;2023-10-19T00:05:32;98368.69;;;7.23;93.09
58373;BME280;44177;43.356;27.672;2023-10-19T00:07:59;98370.97;;;7.21;93.01
58373;BME280;44177;43.356;27.672;2023-10-19T00:10:26;98376.38;;;7.13;93.25
58373;BME280;44177;43.356;27.672;2023-10-19T00:12:57;98302.66;;;6.67;93.60
58373;BME280;44177;43.356;27.672;2023-10-19T00:15:31;98307.44;;;6.70;94.20
58373;BME280;44177;43.356;27.672;2023-10-19T00:17:58;98357.22;;;7.09;94.39
58373;BME280;44177;43.356;27.672;2023-10-19T00:20:34;98364.06;;;7.15;95.30
58373;BME280;44177;43.356;27.672;2023-10-19T00:23:16;98347.03;;;7.06;95.24
58373;BME280;44177;43.356;27.672;2023-10-19T00:26:02;98358.81;;;7.10;94.83
58373;BME280;44177;43.356;27.672;2023-10-19T00:28:34;98340.78;;;6.97;94.35
58373;BME280;44177;43.356;27.672;2023-10-19T00:31:01;98351.16;;;7.03;94.18
58373;BME280;44177;43.356;27.672;2023-10-19T00:33:29;98347.66;;;7.03;95.42
58373;BME280;44177;43.356;27.672;2023-10-19T00:36:00;98296.75;;;6.73;96.21
58373;BME280;44177;43.356;27.672;2023-10-19T00:38:32;98353.38;;;7.10;96.80
58373;BME280;44177;43.356;27.672;2023-10-19T00:41:01;98357.38;;;7.13;97.09
58373;BME280;44177;43.356;27.672;2023-10-19T00:43:49;98334.41;;;7.01;95.84
58373;BME280;44177;43.356;27.672;2023-10-19T00:46:20;98346.38;;;7.09;94.53
58373;BME280;44177;43.356;27.672;2023-10-19T00:51:27;98349.22;;;6.95;95.78
58373;BME280;44177;43.356;27.672;2023-10-19T00:54:04;98343.50;;;6.97;96.14
58373;BME280;44177;43.356;27.672;2023-10-19T00:56:35;98349.72;;;6.88;95.78
58373;BME280;44177;43.356;27.672;2023-10-19T00:59:01;98329.13;;;6.70;95.22
58373;BME280;44177;43.356;27.672;2023-10-19T01:01:54;98327.03;;;6.58;95.68
58373;BME280;44177;43.356;27.672;2023-10-19T01:04:24;98333.25;;;6.58;95.83
58373;BME280;44177;43.356;27.672;2023-10-19T01:06:50;98338.53;;;6.55;96.69
58373;BME280;44177;43.356;27.672;2023-10-19T01:09:45;98339.31;;;6.55;97.57
58373;BME280;44177;43.356;27.672;2023-10-19T01:12:11;98311.38;;;6.46;97.66
58373;BME280;44177;43.356;27.672;2023-10-19T01:17:31;98344.44;;;6.66;97.79
58373;BME280;44177;43.356;27.672;2023-10-19T01:19:59;98336.31;;;6.66;97.74
58373;BME280;44177;43.356;27.672;2023-10-19T01:22:24;98329.91;;;6.61;97.58
58373;BME280;44177;43.356;27.672;2023-10-19T01:24:52;98338.03;;;6.61;97.88
58373;BME280;44177;43.356;27.672;2023-10-19T01:27:18;98300.22;;;6.39;98.27
58373;BME280;44177;43.356;27.672;2023-10-19T01:29:45;98334.69;;;6.64;98.54
58373;BME280;44177;43.356;27.672;2023-10-19T01:32:11;98326.25;;;6.66;100.00
58373;BME280;44177;43.356;27.672;2023-10-19T01:34:40;98328.50;;;6.73;100.00
58373;BME280;44177;43.356;27.672;2023-10-19T01:37:05;98308.41;;;6.74;100.00
58373;BME280;44177;43.356;27.672;2023-10-19T01:39:34;98321.00;;;6.87;100.00
58373;BME280;44177;43.356;27.672;2023-10-19T01:42:04;98322.25;;;6.99;100.00
58373;BME280;44177;43.356;27.672;2023-10-19T01:44:31;98318.59;;;7.03;100.00
58373;BME280;44177;43.356;27.672;2023-10-19T01:46:56;98306.34;;;7.06;100.00
58373;BME280;44177;43.356;27.672;2023-10-19T01:49:22;98321.16;;;7.17;99.87
58373;BME280;44177;43.356;27.672;2023-10-19T01:51:54;98319.38;;;7.13;98.90
58373;BME280;44177;43.356;27.672;2023-10-19T01:54:22;98315.56;;;7.14;97.90
58373;BME280;44177;43.356;27.672;2023-10-19T01:56:51;98252.25;;;6.66;97.04
58373;BME280;44177;43.356;27.672;2023-10-19T01:59:20;98319.09;;;7.05;97.44
58373;BME280;44177;43.356;27.672;2023-10-19T02:01:46;98316.03;;;7.07;97.71
58373;BME280;44177;43.356;27.672;2023-10-19T02:04:11;98310.16;;;6.96;96.47
58373;BME280;44177;43.356;27.672;2023-10-19T02:06:38;98311.25;;;6.95;95.91
58373;BME280;44177;43.356;27.672;2023-10-19T02:09:08;98315.75;;;6.91;97.05
58373;BME280;44177;43.356;27.672;2023-10-19T02:11:35;98319.09;;;6.97;98.14
58373;BME280;44177;43.356;27.672;2023-10-19T02:14:03;98315.09;;;7.03;98.98
58373;BME280;44177;43.356;27.672;2023-10-19T02:16:31;98312.22;;;7.08;98.94
58373;BME280;44177;43.356;27.672;2023-10-19T02:18:58;98315.09;;;7.11;98.28
58373;BME280;44177;43.356;27.672;2023-10-19T02:21:23;98305.66;;;7.09;97.87
58373;BME280;44177;43.356;27.672;2023-10-19T02:23:52;98314.94;;;7.08;97.38
58373;BME280;44177;43.356;27.672;2023-10-19T02:26:21;98303.78;;;6.92;97.39
58373;BME280;44177;43.356;27.672;2023-10-19T02:28:49;98321.47;;;6.98;97.74
58373;BME280;44177;43.356;27.672;2023-10-19T02:31:18;98316.69;;;6.95;98.29
58373;BME280;44177;43.356;27.672;2023-10-19T02:33:50;98312.69;;;6.92;98.53
58373;BME280;44177;43.356;27.672;2023-10-19T02:36:24;98314.28;;;6.93;97.77
58373;BME280;44177;43.356;27.672;2023-10-19T02:38:55;98319.72;;;6.85;97.01
58373;BME280;44177;43.356;27.672;2023-10-19T02:41:25;98309.97;;;6.75;97.63
58373;BME280;44177;43.356;27.672;2023-10-19T02:43:55;98309.69;;;6.76;98.62
58373;BME280;44177;43.356;27.672;2023-10-19T02:46:33;98304.75;;;6.78;99.31
58373;BME280;44177;43.356;27.672;2023-10-19T02:49:03;98317.66;;;6.90;98.95
58373;BME280;44177;43.356;27.672;2023-10-19T02:51:33;98306.00;;;6.90;98.52
58373;BME280;44177;43.356;27.672;2023-10-19T02:53:58;98290.69;;;6.85;98.38
58373;BME280;44177;43.356;27.672;2023-10-19T02:56:27;98311.91;;;7.01;98.44
58373;BME280;44177;43.356;27.672;2023-10-19T02:58:55;98303.75;;;7.01;98.24
58373;BME280;44177;43.356;27.672;2023-10-19T03:01:27;98312.56;;;6.98;97.99
58373;BME280;44177;43.356;27.672;2023-10-19T03:04:01;98312.72;;;7.01;97.96
58373;BME280;44177;43.356;27.672;2023-10-19T03:06:28;98259.75;;;6.69;97.89
58373;BME280;44177;43.356;27.672;2023-10-19T03:09:00;98297.53;;;6.91;97.38
58373;BME280;44177;43.356;27.672;2023-10-19T03:11:47;98304.09;;;6.99;97.22
58373;BME280;44177;43.356;27.672;2023-10-19T03:14:17;98296.25;;;6.89;97.45
58373;BME280;44177;43.356;27.672;2023-10-19T03:16:43;98299.28;;;6.96;98.37
58373;BME280;44177;43.356;27.672;2023-10-19T03:19:09;98299.00;;;6.98;99.23
58373;BME280;44177;43.356;27.672;2023-10-19T03:21:35;98252.88;;;6.71;99.60
58373;BME280;44177;43.356;27.672;2023-10-19T03:24:10;98306.78;;;7.08;100.00
58373;BME280;44177;43.356;27.672;2023-10-19T03:26:40;98301.06;;;7.09;99.99
58373;BME280;44177;43.356;27.672;2023-10-19T03:29:14;98298.50;;;7.13;99.60
58373;BME280;44177;43.356;27.672;2023-10-19T03:31:40;98293.72;;;7.10;98.96
58373;BME280;44177;43.356;27.672;2023-10-19T03:34:12;98299.44;;;7.17;99.59
58373;BME280;44177;43.356;27.672;2023-10-19T03:36:38;98272.63;;;7.07;98.53
58373;BME280;44177;43.356;27.672;2023-10-19T03:39:04;98291.13;;;7.22;99.14
58373;BME280;44177;43.356;27.672;2023-10-19T03:41:39;98288.25;;;7.27;99.57
58373;BME280;44177;43.356;27.672;2023-10-19T03:44:12;98256.69;;;7.14;100.00
58373;BME280;44177;43.356;27.672;2023-10-19T03:46:44;98264.81;;;7.23;100.00
58373;BME280;44177;43.356;27.672;2023-10-19T03:49:29;98293.47;;;7.50;100.00
58373;BME280;44177;43.356;27.672;2023-10-19T03:52:01;98294.25;;;7.59;100.00
58373;BME280;44177;43.356;27.672;2023-10-19T03:54:46;98286.06;;;7.68;100.00
58373;BME280;44177;43.356;27.672;2023-10-19T03:57:16;98282.66;;;7.80;100.00
58373;BME280;44177;43.356;27.672;2023-10-19T03:59:46;98290.47;;;7.90;99.96
58373;BME280;44177;43.356;27.672;2023-10-19T04:02:15;98289.16;;;7.97;99.08
58373;BME280;44177;43.356;27.672;2023-10-19T04:04:45;98282.75;;;8.01;98.77
58373;BME280;44177;43.356;27.672;2023-10-19T04:07:12;98282.88;;;8.05;98.46
58373;BME280;44177;43.356;27.672;2023-10-19T04:09:53;98282.69;;;8.10;98.16
58373;BME280;44177;43.356;27.672;2023-10-19T04:12:35;98282.69;;;8.10;97.60
58373;BME280;44177;43.356;27.672;2023-10-19T04:15:04;98236.84;;;7.79;96.49
58373;BME280;44177;43.356;27.672;2023-10-19T04:17:40;98283.81;;;8.09;95.84
58373;BME280;44177;43.356;27.672;2023-10-19T04:20:08;98287.69;;;8.08;95.85
58373;BME280;44177;43.356;27.672;2023-10-19T04:22:46;98291.97;;;8.09;95.30
58373;BME280;44177;43.356;27.672;2023-10-19T04:25:13;98285.94;;;8.03;94.78
58373;BME280;44177;43.356;27.672;2023-10-19T04:27:43;98288.19;;;8.01;94.93
58373;BME280;44177;43.356;27.672;2023-10-19T04:30:09;98282.31;;;7.90;94.85
58373;BME280;44177;43.356;27.672;2023-10-19T04:32:47;98291.44;;;7.86;94.83
58373;BME280;44177;43.356;27.672;2023-10-19T04:35:13;98301.06;;;7.74;95.43
58373;BME280;44177;43.356;27.672;2023-10-19T04:37:55;98293.25;;;7.73;96.53
58373;BME280;44177;43.356;27.672;2023-10-19T04:40:23;98284.63;;;7.71;97.18
58373;BME280;44177;43.356;27.672;2023-10-19T04:42:52;98295.78;;;7.78;97.99
58373;BME280;44177;43.356;27.672;2023-10-19T04:45:18;98293.19;;;7.90;98.70
58373;BME280;44177;43.356;27.672;2023-10-19T04:47:43;98281.00;;;7.97;98.84
58373;BME280;44177;43.356;27.672;2023-10-19T04:50:09;98267.56;;;8.00;98.60
58373;BME280;44177;43.356;27.672;2023-10-19T04:52:38;98279.81;;;8.15;97.96
58373;BME280;44177;43.356;27.672;2023-10-19T04:55:04;98297.59;;;8.34;97.14
58373;BME280;44177;43.356;27.672;2023-10-19T04:57:30;98300.25;;;8.43;96.55
58373;BME280;44177;43.356;27.672;2023-10-19T04:59:56;98301.69;;;8.49;95.66
58373;BME280;44177;43.356;27.672;2023-10-19T05:02:22;98283.34;;;8.37;94.74
58373;BME280;44177;43.356;27.672;2023-10-19T05:04:47;98298.16;;;8.48;94.27
58373;BME280;44177;43.356;27.672;2023-10-19T05:07:14;98296.09;;;8.45;93.69
58373;BME280;44177;43.356;27.672;2023-10-19T05:09:42;98288.28;;;8.44;93.47
58373;BME280;44177;43.356;27.672;2023-10-19T05:12:08;98303.41;;;8.53;93.36
58373;BME280;44177;43.356;27.672;2023-10-19T05:14:35;98300.50;;;8.59;92.96
58373;BME280;44177;43.356;27.672;2023-10-19T05:17:04;98292.59;;;8.66;93.00
58373;BME280;44177;43.356;27.672;2023-10-19T05:19:34;98293.22;;;8.72;92.65
58373;BME280;44177;43.356;27.672;2023-10-19T05:22:00;98290.50;;;8.72;93.03
58373;BME280;44177;43.356;27.672;2023-10-19T05:24:27;98300.84;;;8.78;93.79
58373;BME280;44177;43.356;27.672;2023-10-19T05:26:53;98294.34;;;8.92;93.25
58373;BME280;44177;43.356;27.672;2023-10-19T05:29:20;98297.09;;;9.04;92.95
58373;BME280;44177;43.356;27.672;2023-10-19T05:31:46;98297.81;;;9.13;92.28
58373;BME280;44177;43.356;27.672;2023-10-19T05:34:11;98310.81;;;9.29;91.90
58373;BME280;44177;43.356;27.672;2023-10-19T05:36:37;98304.28;;;9.42;91.00
58373;BME280;44177;43.356;27.672;2023-10-19T05:39:03;98307.75;;;9.64;90.16
58373;BME280;44177;43.356;27.672;2023-10-19T05:41:33;98298.25;;;9.95;88.74
58373;BME280;44177;43.356;27.672;2023-10-19T05:43:59;98279.25;;;10.36;86.50
58373;BME280;44177;43.356;27.672;2023-10-19T05:46:25;98290.97;;;11.46;83.51
58373;BME280;44177;43.356;27.672;2023-10-19T05:48:51;98289.69;;;12.91;76.71
58373;BME280;44177;43.356;27.672;2023-10-19T05:51:19;98268.44;;;14.17;69.77
58373;BME280;44177;43.356;27.672;2023-10-19T05:53:44;98283.03;;;15.84;62.93
58373;BME280;44177;43.356;27.672;2023-10-19T05:56:10;98277.53;;;17.07;57.25
58373;BME280;44177;43.356;27.672;2023-10-19T05:58:36;98274.13;;;17.67;55.58
58373;BME280;44177;43.356;27.672;2023-10-19T06:01:02;98280.09;;;18.06;53.96
58373;BME280;44177;43.356;27.672;2023-10-19T06:03:27;98275.13;;;19.11;50.87
58373;BME280;44177;43.356;27.672;2023-10-19T06:05:53;98280.84;;;20.06;48.40
58373;BME280;44177;43.356;27.672;2023-10-19T06:08:22;98273.97;;;21.32;45.88
58373;BME280;44177;43.356;27.672;2023-10-19T06:10:53;98270.34;;;22.61;43.42
58373;BME280;44177;43.356;27.672;2023-10-19T06:13:20;98272.53;;;23.50;41.34
58373;BME280;44177;43.356;27.672;2023-10-19T06:15:48;98243.50;;;24.01;39.80
58373;BME280;44177;43.356;27.672;2023-10-19T06:18:14;98279.78;;;23.28;40.04
58373;BME280;44177;43.356;27.672;2023-10-19T06:20:45;98270.81;;;23.20;40.92
58373;BME280;44177;43.356;27.672;2023-10-19T06:23:11;98273.44;;;23.27;40.63
58373;BME280;44177;43.356;27.672;2023-10-19T06:25:38;98276.94;;;23.11;40.73
58373;BME280;44177;43.356;27.672;2023-10-19T06:28:04;98271.34;;;22.51;41.71
58373;BME280;44177;43.356;27.672;2023-10-19T06:30:30;98269.16;;;22.38;41.62
58373;BME280;44177;43.356;27.672;2023-10-19T06:32:59;98264.31;;;21.71;42.72
58373;BME280;44177;43.356;27.672;2023-10-19T06:35:26;98269.78;;;22.02;42.92
58373;BME280;44177;43.356;27.672;2023-10-19T06:37:53;98270.63;;;22.47;41.74
58373;BME280;44177;43.356;27.672;2023-10-19T06:40:20;98284.75;;;22.32;41.63
58373;BME280;44177;43.356;27.672;2023-10-19T06:42:48;98289.81;;;22.41;41.25
58373;BME280;44177;43.356;27.672;2023-10-19T06:45:15;98293.75;;;21.92;41.83
58373;BME280;44177;43.356;27.672;2023-10-19T06:47:46;98293.41;;;22.14;42.00
58373;BME280;44177;43.356;27.672;2023-10-19T06:50:13;98284.19;;;22.45;41.50
58373;BME280;44177;43.356;27.672;2023-10-19T06:52:41;98282.84;;;22.93;40.66
58373;BME280;44177;43.356;27.672;2023-10-19T06:55:10;98277.38;;;22.22;41.87
58373;BME280;44177;43.356;27.672;2023-10-19T06:57:43;98282.94;;;22.22;41.85
58373;BME280;44177;43.356;27.672;2023-10-19T07:00:12;98272.00;;;22.11;41.45
58373;BME280;44177;43.356;27.672;2023-10-19T07:02:50;98276.16;;;21.99;42.05
58373;BME280;44177;43.356;27.672;2023-10-19T07:05:17;98261.28;;;21.62;42.51
58373;BME280;44177;43.356;27.672;2023-10-19T07:07:55;98284.31;;;21.59;42.65
58373;BME280;44177;43.356;27.672;2023-10-19T07:10:22;98264.06;;;21.62;43.00
58373;BME280;44177;43.356;27.672;2023-10-19T07:12:51;98268.78;;;22.40;42.11
58373;BME280;44177;43.356;27.672;2023-10-19T07:15:17;98268.56;;;22.27;41.71
58373;BME280;44177;43.356;27.672;2023-10-19T07:17:48;98271.53;;;21.92;42.14
58373;BME280;44177;43.356;27.672;2023-10-19T07:20:15;98202.66;;;22.28;41.49
58373;BME280;44177;43.356;27.672;2023-10-19T07:23:02;98204.22;;;21.03;43.20
58373;BME280;44177;43.356;27.672;2023-10-19T07:25:49;98257.00;;;21.57;42.31
58373;BME280;44177;43.356;27.672;2023-10-19T07:28:20;98256.91;;;22.12;41.97
58373;BME280;44177;43.356;27.672;2023-10-19T07:30:46;98237.16;;;22.06;41.43
58373;BME280;44177;43.356;27.672;2023-10-19T07:33:12;98252.81;;;22.20;41.55
58373;BME280;44177;43.356;27.672;2023-10-19T07:35:49;98242.63;;;22.14;41.02
58373;BME280;44177;43.356;27.672;2023-10-19T07:38:21;98197.91;;;21.57;41.39
58373;BME280;44177;43.356;27.672;2023-10-19T07:40:47;98260.19;;;22.07;41.05
58373;BME280;44177;43.356;27.672;2023-10-19T07:43:13;98249.94;;;21.49;41.91
58373;BME280;44177;43.356;27.672;2023-10-19T07:45:39;98250.31;;;20.93;43.15
58373;BME280;44177;43.356;27.672;2023-10-19T07:48:05;98214.84;;;21.08;42.85
58373;BME280;44177;43.356;27.672;2023-10-19T07:50:36;98243.31;;;21.43;42.63
58373;BME280;44177;43.356;27.672;2023-10-19T07:53:03;98248.09;;;21.11;42.60
58373;BME280;44177;43.356;27.672;2023-10-19T07:55:29;98250.91;;;21.93;41.58
58373;BME280;44177;43.356;27.672;2023-10-19T07:57:57;98248.06;;;21.97;40.33
58373;BME280;44177;43.356;27.672;2023-10-19T08:00:25;98255.38;;;21.56;40.83
58373;BME280;44177;43.356;27.672;2023-10-19T08:02:52;98247.31;;;21.93;40.92
58373;BME280;44177;43.356;27.672;2023-10-19T08:05:19;98245.03;;;22.12;40.04
58373;BME280;44177;43.356;27.672;2023-10-19T08:07:45;98230.41;;;21.84;40.52
58373;BME280;44177;43.356;27.672;2023-10-19T08:10:13;98245.84;;;22.56;39.48
58373;BME280;44177;43.356;27.672;2023-10-19T08:12:40;98232.44;;;22.71;39.28
58373;BME280;44177;43.356;27.672;2023-10-19T08:15:12;98227.25;;;22.29;38.51
58373;BME280;44177;43.356;27.672;2023-10-19T08:17:42;98254.03;;;22.63;38.44
58373;BME280;44177;43.356;27.672;2023-10-19T08:20:09;98239.84;;;22.58;38.64
58373;BME280;44177;43.356;27.672;2023-10-19T08:22:43;98246.97;;;22.79;37.92
58373;BME280;44177;43.356;27.672;2023-10-19T08:25:12;98239.34;;;22.63;37.20
58373;BME280;44177;43.356;27.672;2023-10-19T08:27:44;98242.47;;;22.85;37.24
58373;BME280;44177;43.356;27.672;2023-10-19T08:30:14;98229.88;;;22.60;38.14
58373;BME280;44177;43.356;27.672;2023-10-19T08:32:41;98250.47;;;22.19;38.50
58373;BME280;44177;43.356;27.672;2023-10-19T08:35:08;98240.78;;;22.71;37.14
58373;BME280;44177;43.356;27.672;2023-10-19T08:37:40;98246.22;;;22.34;37.84
58373;BME280;44177;43.356;27.672;2023-10-19T08:40:10;98250.97;;;21.86;38.31
58373;BME280;44177;43.356;27.672;2023-10-19T08:42:43;98243.88;;;21.85;38.32
58373;BME280;44177;43.356;27.672;2023-10-19T08:45:10;98232.00;;;21.30;39.75
58373;BME280;44177;43.356;27.672;2023-10-19T08:47:43;98236.91;;;21.19;39.68
58373;BME280;44177;43.356;27.672;2023-10-19T08:50:14;98240.22;;;21.65;39.29
58373;BME280;44177;43.356;27.672;2023-10-19T08:52:43;98240.31;;;21.85;39.19
58373;BME280;44177;43.356;27.672;2023-10-19T08:55:08;98220.97;;;22.25;37.42
58373;BME280;44177;43.356;27.672;2023-10-19T08:57:38;98232.00;;;22.73;37.37
58373;BME280;44177;43.356;27.672;2023-10-19T09:00:05;98240.63;;;22.98;36.49
58373;BME280;44177;43.356;27.672;2023-10-19T09:02:32;98217.41;;;22.89;36.23
58373;BME280;44177;43.356;27.672;2023-10-19T09:04:58;98223.97;;;22.78;36.38
58373;BME280;44177;43.356;27.672;2023-10-19T09:07:25;98226.44;;;22.93;35.55
58373;BME280;44177;43.356;27.672;2023-10-19T09:09:56;98222.66;;;23.03;36.09
58373;BME280;44177;43.356;27.672;2023-10-19T09:12:22;98214.31;;;23.89;34.39
58373;BME280;44177;43.356;27.672;2023-10-19T09:14:48;98222.75;;;23.69;34.21
58373;BME280;44177;43.356;27.672;2023-10-19T09:17:15;98209.97;;;23.72;34.02
58373;BME280;44177;43.356;27.672;2023-10-19T09:19:44;98211.25;;;23.84;33.87
58373;BME280;44177;43.356;27.672;2023-10-19T09:22:12;98205.88;;;23.76;34.28
58373;BME280;44177;43.356;27.672;2023-10-19T09:24:45;98194.50;;;23.87;33.91
58373;BME280;44177;43.356;27.672;2023-10-19T09:27:12;98193.78;;;23.83;34.05
58373;BME280;44177;43.356;27.672;2023-10-19T09:29:38;98193.19;;;23.06;35.30
58373;BME280;44177;43.356;27.672;2023-10-19T09:32:06;98202.75;;;23.05;35.83
58373;BME280;44177;43.356;27.672;2023-10-19T09:34:34;98185.97;;;23.45;35.14
58373;BME280;44177;43.356;27.672;2023-10-19T09:37:00;98188.13;;;23.54;34.91
58373;BME280;44177;43.356;27.672;2023-10-19T09:39:28;98080.59;;;22.94;34.95
58373;BME280;44177;43.356;27.672;2023-10-19T09:42:06;98170.97;;;23.88;33.35
58373;BME280;44177;43.356;27.672;2023-10-19T09:44:45;98170.03;;;23.78;31.64
58373;BME280;44177;43.356;27.672;2023-10-19T09:47:15;98168.81;;;23.63;32.19
58373;BME280;44177;43.356;27.672;2023-10-19T09:49:46;98173.09;;;23.68;33.08
58373;BME280;44177;43.356;27.672;2023-10-19T09:52:16;98134.03;;;23.55;33.72
58373;BME280;44177;43.356;27.672;2023-10-19T09:57:18;98132.25;;;24.23;32.78
58373;BME280;44177;43.356;27.672;2023-10-19T09:59:46;98130.97;;;23.65;33.62
58373;BME280;44177;43.356;27.672;2023-10-19T10:02:15;98121.94;;;23.28;33.51
58373;BME280;44177;43.356;27.672;2023-10-19T10:04:43;98144.97;;;23.29;31.51
58373;BME280;44177;43.356;27.672;2023-10-19T10:07:11;98144.38;;;23.21;31.95
58373;BME280;44177;43.356;27.672;2023-10-19T10:09:41;98107.06;;;23.52;32.61
58373;BME280;44177;43.356;27.672;2023-10-19T10:12:17;98112.38;;;23.62;32.46
58373;BME280;44177;43.356;27.672;2023-10-19T10:15:03;98103.03;;;23.53;32.67
58373;BME280;44177;43.356;27.672;2023-10-19T10:17:37;98104.53;;;23.08;33.31
58373;BME280;44177;43.356;27.672;2023-10-19T10:22:42;98104.66;;;22.84;33.87
58373;BME280;44177;43.356;27.672;2023-10-19T10:25:25;98051.66;;;23.08;32.96
58373;BME280;44177;43.356;27.672;2023-10-19T10:27:53;98093.91;;;23.02;33.49
58373;BME280;44177;43.356;27.672;2023-10-19T10:30:20;98095.09;;;22.85;33.49
58373;BME280;44177;43.356;27.672;2023-10-19T10:32:54;98052.81;;;23.27;33.15
58373;BME280;44177;43.356;27.672;2023-10-19T10:35:53;98056.34;;;23.44;32.86
58373;BME280;44177;43.356;27.672;2023-10-19T10:38:19;98062.69;;;23.44;32.89
58373;BME280;44177;43.356;27.672;2023-10-19T10:40:49;98061.06;;;23.47;32.60
58373;BME280;44177;43.356;27.672;2023-10-19T10:43:16;98057.41;;;23.33;31.86
58373;BME280;44177;43.356;27.672;2023-10-19T10:45:42;98047.47;;;23.49;31.69
58373;BME280;44177;43.356;27.672;2023-10-19T10:48:15;98038.78;;;23.47;32.43
58373;BME280;44177;43.356;27.672;2023-10-19T10:50:41;98028.00;;;23.32;32.59
58373;BME280;44177;43.356;27.672;2023-10-19T10:53:07;98040.25;;;23.52;32.08
58373;BME280;44177;43.356;27.672;2023-10-19T10:55:33;98034.22;;;23.70;31.69
58373;BME280;44177;43.356;27.672;2023-10-19T10:57:58;98025.94;;;23.20;31.49
58373;BME280;44177;43.356;27.672;2023-10-19T11:00:25;98029.66;;;23.13;31.34
58373;BME280;44177;43.356;27.672;2023-10-19T11:03:02;98036.19;;;22.90;32.22
58373;BME280;44177;43.356;27.672;2023-10-19T11:05:35;98037.22;;;22.80;31.65
58373;BME280;44177;43.356;27.672;2023-10-19T11:10:33;98035.00;;;23.24;30.83
58373;BME280;44177;43.356;27.672;2023-10-19T11:13:05;98025.75;;;23.27;30.73
58373;BME280;44177;43.356;27.672;2023-10-19T11:15:35;98037.06;;;23.37;30.04
58373;BME280;44177;43.356;27.672;2023-10-19T11:18:02;98016.38;;;23.21;29.88
58373;BME280;44177;43.356;27.672;2023-10-19T11:20:28;98021.38;;;23.43;29.71
58373;BME280;44177;43.356;27.672;2023-10-19T11:22:55;98014.28;;;23.25;29.80
58373;BME280;44177;43.356;27.672;2023-10-19T11:25:25;98018.78;;;23.02;30.14
58373;BME280;44177;43.356;27.672;2023-10-19T11:28:17;98014.06;;;23.20;30.09
58373;BME280;44177;43.356;27.672;2023-10-19T11:30:44;98011.34;;;22.99;30.09
58373;BME280;44177;43.356;27.672;2023-10-19T11:33:13;98017.59;;;23.03;30.20
58373;BME280;44177;43.356;27.672;2023-10-19T11:35:39;98006.97;;;23.15;29.66
58373;BME280;44177;43.356;27.672;2023-10-19T11:38:04;98005.78;;;22.99;29.95
58373;BME280;44177;43.356;27.672;2023-10-19T11:40:30;98013.59;;;23.05;29.88
58373;BME280;44177;43.356;27.672;2023-10-19T11:42:56;97994.56;;;23.03;30.28
58373;BME280;44177;43.356;27.672;2023-10-19T11:45:22;98010.59;;;22.62;30.63
58373;BME280;44177;43.356;27.672;2023-10-19T11:47:48;98035.59;;;22.46;31.17
58373;BME280;44177;43.356;27.672;2023-10-19T11:50:16;98002.00;;;22.40;31.34
58373;BME280;44177;43.356;27.672;2023-10-19T11:52:44;98007.81;;;22.46;31.01
58373;BME280;44177;43.356;27.672;2023-10-19T11:55:11;97984.91;;;22.58;31.03
58373;BME280;44177;43.356;27.672;2023-10-19T11:57:39;97974.16;;;22.60;31.13
58373;BME280;44177;43.356;27.672;2023-10-19T12:00:06;97976.22;;;22.73;30.89
58373;BME280;44177;43.356;27.672;2023-10-19T12:02:37;97994.97;;;22.85;30.24
58373;BME280;44177;43.356;27.672;2023-10-19T12:05:06;97979.19;;;22.82;30.41
58373;BME280;44177;43.356;27.672;2023-10-19T12:07:36;97969.88;;;22.72;30.57
58373;BME280;44177;43.356;27.672;2023-10-19T12:10:03;97990.22;;;22.85;30.02
58373;BME280;44177;43.356;27.672;2023-10-19T12:12:29;97976.56;;;22.75;29.92
58373;BME280;44177;43.356;27.672;2023-10-19T12:14:54;97977.25;;;22.62;30.25
58373;BME280;44177;43.356;27.672;2023-10-19T12:17:20;97981.41;;;22.54;30.07
58373;BME280;44177;43.356;27.672;2023-10-19T12:19:47;97973.25;;;22.63;30.15
58373;BME280;44177;43.356;27.672;2023-10-19T12:22:13;97971.19;;;22.67;30.14
58373;BME280;44177;43.356;27.672;2023-10-19T12:24:38;97960.56;;;22.62;30.02
58373;BME280;44177;43.356;27.672;2023-10-19T12:27:04;97947.28;;;22.53;29.76
58373;BME280;44177;43.356;27.672;2023-10-19T12:29:29;97965.06;;;22.39;30.44
58373;BME280;44177;43.356;27.672;2023-10-19T12:31:57;97963.34;;;22.09;30.63
58373;BME280;44177;43.356;27.672;2023-10-19T12:34:22;97960.66;;;22.05;30.53
58373;BME280;44177;43.356;27.672;2023-10-19T12:36:48;97954.25;;;22.25;30.54
58373;BME280;44177;43.356;27.672;2023-10-19T12:39:15;97954.09;;;22.32;30.19
58373;BME280;44177;43.356;27.672;2023-10-19T12:41:59;97961.09;;;22.40;30.19
58373;BME280;44177;43.356;27.672;2023-10-19T12:44:25;97948.00;;;22.37;29.98
58373;BME280;44177;43.356;27.672;2023-10-19T12:46:53;97950.78;;;22.37;30.31
58373;BME280;44177;43.356;27.672;2023-10-19T12:49:19;97945.94;;;22.25;30.09
58373;BME280;44177;43.356;27.672;2023-10-19T12:51:54;97939.97;;;22.06;30.54
58373;BME280;44177;43.356;27.672;2023-10-19T12:54:19;97945.03;;;22.12;30.81
58373;BME280;44177;43.356;27.672;2023-10-19T12:56:45;97954.22;;;22.08;30.98
58373;BME280;44177;43.356;27.672;2023-10-19T12:59:14;97936.47;;;22.22;31.12
58373;BME280;44177;43.356;27.672;2023-10-19T13:01:42;97935.66;;;22.22;30.94
58373;BME280;44177;43.356;27.672;2023-10-19T13:04:10;97942.41;;;22.04;32.17
58373;BME280;44177;43.356;27.672;2023-10-19T13:06:49;97937.84;;;22.14;32.20
58373;BME280;44177;43.356;27.672;2023-10-19T13:09:14;97943.47;;;22.11;32.54
58373;BME280;44177;43.356;27.672;2023-10-19T13:11:47;97923.66;;;22.08;33.05
58373;BME280;44177;43.356;27.672;2023-10-19T13:14:17;97921.16;;;22.14;33.21
58373;BME280;44177;43.356;27.672;2023-10-19T13:16:43;97877.34;;;21.28;34.14